Ernest Shackleton — ZDLS1 — position and weather

sailwx.info

Track history (hours):
 
Tides and Currents Weather Stations Pressure Air Temp Water Temp Dewpoint Dewpoint Depression Visibility Wind Speed Wind Dir Waves Ship Positions

Oceanographic research ship Ernest Shackleton (UK/Norway)

Detailed information on ship capabilities available from University of Delaware's Ocean Information Center and ARCUS's ALIAS (Arctic Logistics Information and Support) project.

Last reported at 2014-Dec-20 18:00 UTC. Time now 2014-Dec-20 20:10 UTC.
Position S 72°30' W 018°12'.

Length 80 m; beam 17 m; draft 7.4 m.

Type: Other ship. MMSI: 740357000.

AWS

Barometer 985.7 mb
Air temperature -0.7 ° C
Dewpoint -1.7 ° C

Date/timePositionNaut miles runAvg speedWind from/ knotsBaromVisibWave heightAir tempDewpointWater temp
2014-Dec-20 18:00S 72°30' W 018°12'0 0.0 985.7 -0.7-1.7
2014-Dec-20 17:00S 72°30' W 018°12'0 0.0 985.6 0.1-2.2
2014-Dec-20 16:00S 72°30' W 018°12'0 0.0 985.9 0.2-2.5
2014-Dec-20 14:00S 72°30' W 018°12'0 0.0 986.3 -0.4-2.1
2014-Dec-20 13:00S 72°30' W 018°12'2 1.8 986.4 -0.7-1.5
2014-Dec-20 12:00S 72°30' W 018°06'0 0.0 986.5 -1.1-1.1
2014-Dec-20 10:00S 72°30' W 018°06'6 2.0 986.6 -2.2 0.2
2014-Dec-20 07:00S 72°24' W 018°06'0 0.0 987.1 -2.9 1.0
2014-Dec-20 06:00S 72°24' W 018°06'0 0.0 987.4 -2.7 1.3
2014-Dec-20 05:00S 72°24' W 018°06'2 1.8 987.6 -2.9 1.7
2014-Dec-20 04:00S 72°24' W 018°00'0 0.0 987.8 -3.3 2.2
2014-Dec-20 02:00S 72°24' W 018°00'0 0.0 988.2 -3.2 2.0
2014-Dec-20 01:00S 72°24' W 018°00'0 0.0 988.3 -2.8 1.3
2014-Dec-20 00:00S 72°24' W 018°00'0 0.0 988.3 -2.8 1.0
2014-Dec-19 23:00S 72°24' W 018°00'0 0.0 988.2 -2.7 0.3
2014-Dec-19 20:00S 72°24' W 018°00'0 0.0 988.3 -1.9-1.0
2014-Dec-19 19:00S 72°24' W 018°00'0 0.0 988.4 -2.2-0.0
2014-Dec-19 18:00S 72°24' W 018°00'0 0.0 988.4 -2.7 0.8
2014-Dec-19 16:00S 72°24' W 018°00'2 1.8 988.7 -2.5 0.2
2014-Dec-19 15:00S 72°24' W 017°54'2 1.8 988.8 -2.7 0.3
2014-Dec-19 14:00S 72°24' W 017°48'4 3.6 989.0 -3.0 0.2
2014-Dec-19 13:00S 72°24' W 017°36'11 3.6 989.1 -2.8 0.1
2014-Dec-19 10:00S 72°30' W 018°06'0 0.0 989.2 -3.6 1.4
2014-Dec-19 09:00S 72°30' W 018°06'0 0.0 989.1 -4.1 2.3
2014-Dec-19 08:00S 72°30' W 018°06'4 3.6 989.1 -3.9 2.2
2014-Dec-19 07:00S 72°30' W 017°54'1212.4 989.2 -3.7 1.5
2014-Dec-19 06:00S 72°24' W 017°18'2311.6 989.6 -3.3 1.8
2014-Dec-19 04:00S 72°06' W 016°30'1111.1 990.0 -3.4 1.8
2014-Dec-19 03:00S 72°06' W 015°54'7 7.4 990.2 -3.4 2.0
2014-Dec-19 02:00S 72°06' W 015°30'1312.6 990.3 -3.0 1.3
2014-Dec-19 01:00S 71°54' W 015°18'1312.6 990.3 -3.3 1.2
2014-Dec-19 00:00S 71°42' W 015°06'19 9.7 990.4 -3.0 0.1
2014-Dec-18 22:00S 71°30' W 014°18'2813.9 990.5 -2.6-0.4
2014-Dec-18 20:00S 71°12' W 013°12'17 8.3 990.2 -2.3-1.1
2014-Dec-18 18:00S 71°06' W 012°24'1313.1 200 / 18988.810.8 -1.2-1.4-0.9
2014-Dec-18 17:00S 71°00' W 011°48'1111.5 989.2 -3.2-0.1
2014-Dec-18 16:00S 70°54' W 011°18'3210.6 988.7 -2.7-1.7
2014-Dec-18 13:00S 70°42' W 009°48'8 8.5 988.4 -3.4-1.0
2014-Dec-18 12:00S 70°36' W 009°30'1211.7 987.9 -2.4-3.1
2014-Dec-18 11:00S 70°30' W 009°00'1211.7 987.4 -1.5-3.8
2014-Dec-18 10:00S 70°24' W 008°30'1212.1 988.0 -2.0-2.3
2014-Dec-18 09:00S 70°24' W 007°54'1212.1 987.8 -3.6-1.0
2014-Dec-18 08:00S 70°24' W 007°18'1212.1 987.6 -3.8-0.1
2014-Dec-18 07:00S 70°24' W 006°42'1414.5 987.4 -3.8 2.1
2014-Dec-18 06:00S 70°12' W 006°18'6 6.1 987.9 -2.4-0.6
2014-Dec-18 05:00S 70°12' W 006°00'2 2.0 988.1 -2.7-1.7
2014-Dec-18 04:00S 70°12' W 005°54'6 6.3 988.4 -2.6-3.9
2014-Dec-18 03:00S 70°06' W 005°48'2 2.0 988.7 -3.6-0.0
2014-Dec-18 02:00S 70°06' W 005°42'2 2.0 989.0 -4.5 1.2
2014-Dec-18 01:00S 70°06' W 005°36'6 6.0 989.0 -5.0 2.2
2014-Dec-18 00:00S 70°00' W 005°36'6 3.2 989.0 -3.8 1.1
2014-Dec-17 22:00S 69°54' W 005°30'10 5.1 988.5 -1.6-2.9
2014-Dec-17 20:00S 70°00' W 005°06'8 8.2 988.6 -0.2-4.7
2014-Dec-17 19:00S 70°00' W 004°42'6 6.2 988.4 -0.9-3.6
2014-Dec-17 18:00S 70°00' W 004°24'1010.2 987.7 -0.8-3.5
2014-Dec-17 17:00S 69°54' W 004°00'8 8.2 987.1 -0.4-4.1
2014-Dec-17 16:00S 69°54' W 003°36'1212.2 986.5 -1.6-2.3
2014-Dec-17 15:00S 70°06' W 003°30'6 6.0 986.9 -1.4-3.2
2014-Dec-17 14:00S 70°12' W 003°30'6 6.3 987.0 0.1-5.2
2014-Dec-17 13:00S 70°06' W 003°36'17 8.6 986.9 -0.5-5.0
2014-Dec-17 11:00S 69°54' W 003°00'1413.8 984.7 -1.4-2.8
2014-Dec-17 10:00S 69°48' W 002°24'6 6.3 984.3 -1.6-2.0
2014-Dec-17 09:00S 69°42' W 002°18'1212.0 981.7 -1.9-1.2
2014-Dec-17 08:00S 69°30' W 002°18'1212.2 981.3 -2.1-0.7
2014-Dec-17 07:00S 69°18' W 002°24'7 3.7 979.8 -2.2-0.5
2014-Dec-17 05:00S 69°12' W 002°36'6 6.0 979.5 -2.7 0.4
2014-Dec-17 04:00S 69°06' W 002°36'6 6.4 977.9 -2.5 0.6
2014-Dec-17 03:00S 69°00' W 002°42'6 6.0 977.6 -2.6 1.1
2014-Dec-17 02:00S 68°54' W 002°42'7 7.4 976.7 -2.3 0.9
2014-Dec-17 01:00S 68°48' W 002°30'18 9.1 976.3 -2.3 0.8
2014-Dec-16 23:00S 68°30' W 002°24'6 6.0 974.7 -2.4 1.2
2014-Dec-16 22:00S 68°24' W 002°24'6 6.0 974.5 -2.4 1.1
2014-Dec-16 21:00S 68°18' W 002°24'12 6.1 974.3 -2.1 0.7
2014-Dec-16 19:00S 68°06' W 002°18'19 9.3 974.2 -1.7-0.0
2014-Dec-16 17:00S 67°48' W 002°06'145 7.3 973.9 -1.2-1.3
2014-Dec-15 21:00S 65°24' W 001°18'3110.3 120 / 14972.2 5.4 -1.6 -0.7
2014-Dec-15 18:00S 64°54' W 001°36'6310.4 130 / 7973.1 2.2 -0.6-1.0-0.7
2014-Dec-15 12:00S 63°54' W 002°18'25 8.2 040 / 3974.3 5.4 1.2 0.1-0.9
2014-Dec-15 09:00S 63°30' W 002°30'44 8.8 050 / 2975.5 2.2 -0.0-0.3-1.0
2014-Dec-15 04:00S 62°48' W 003°00'9812.3 030 / 7978.4 2.2 -1.6-2.4-1.0
2014-Dec-14 20:00S 61°12' W 002°18'30 9.9 340 / 9982.4 5.4 -1.1-1.8-0.8
2014-Dec-14 17:00S 60°48' W 001°42'2512.6 340 / 8984.6 5.4 -0.9 -0.9
2014-Dec-14 15:00S 60°30' W 001°06'2512.7 290 / 11987.2 5.4 -0.3 -0.9
2014-Dec-14 13:00S 60°12' W 000°30'37 9.2 250 / 13988.0 5.4 -0.4-1.9-0.8
2014-Dec-14 09:00S 59°42' E 000°12'5711.4 340 / 17989.0 2.2 -0.8 -0.9
2014-Dec-14 04:00S 58°48' E 000°48'3913.1 330 / 18994.9 5.4 -1.7-2.5-0.5
2014-Dec-14 01:00S 58°12' E 001°18'7 6.8 997.8 -2.4-0.6
2014-Dec-14 00:00S 58°06' E 001°24'28411.4 998.4 -2.9-0.2
2014-Dec-12 23:00S 53°42' E 004°30'1414.0 977.9 -0.6
2014-Dec-12 22:00S 53°30' E 004°42'1312.5 978.6 0.2-0.4
2014-Dec-12 21:00S 53°18' E 004°48'1414.0 979.3 0.2-0.5
2014-Dec-12 20:00S 53°06' E 005°00'1312.5 980.7 0.2-0.5
2014-Dec-12 19:00S 52°54' E 005°06'9 9.4 040 / 15982.0 5.4 0.5 0.5-0.3 1.5
2014-Dec-12 18:00S 52°48' E 005°18'2512.5 984.2 1.0 0.2
2014-Dec-12 16:00S 52°24' E 005°30'2110.6 989.2 0.9 0.1
2014-Dec-12 14:00S 52°06' E 005°48'2110.6 994.2 0.9-0.1
2014-Dec-12 12:00S 51°48' E 006°06'3411.2 997.9 1.5 0.4
2014-Dec-12 09:00S 51°18' E 006°30'39 9.8 1001.8 1.0-1.1
2014-Dec-12 05:00S 50°42' E 006°54'7 7.1 1003.1 1.4-3.0
2014-Dec-12 04:00S 50°36' E 007°00'6 6.0 1003.0 1.5-2.2
2014-Dec-12 03:00S 50°30' E 007°00'10 9.7 250 / 181002.4 2.2 1.0 2.2 1.1 3.4
2014-Dec-12 02:00S 50°24' E 007°12'1312.6 1003.0 1.9-2.6
2014-Dec-12 01:00S 50°12' E 007°18'7 7.1 1003.0 1.8-2.0
2014-Dec-12 00:00S 50°06' E 007°24'7 7.1 1003.3 0.9-1.0
2014-Dec-11 23:00S 50°00' E 007°30'13 6.3 1003.0 2.2-2.6
2014-Dec-11 21:00S 49°48' E 007°36'14 7.1 1003.0 2.1-3.6
2014-Dec-11 19:00S 49°36' E 007°48'7 7.2 1001.2 1.8-3.8
2014-Dec-11 18:00S 49°30' E 007°54'6 6.0 999.8 1.8-4.1
2014-Dec-11 17:00S 49°24' E 007°54'7 7.2 998.0 2.0-3.3
2014-Dec-11 16:00S 49°18' E 008°00'7 7.2 996.3 0.1-1.0
2014-Dec-11 15:00S 49°12' E 008°06'0 0.0 994.6 1.8-2.9
2014-Dec-11 14:00S 49°12' E 008°06'7 7.2 992.9 1.8-2.3
2014-Dec-11 13:00S 49°06' E 008°12'7 7.2 991.4 2.3-1.2
2014-Dec-11 12:00S 49°00' E 008°18'6 6.0 989.4 2.2 0.2
2014-Dec-11 11:00S 48°54' E 008°18'4110.3 988.3 3.2 0.3
2014-Dec-11 07:00S 48°18' E 008°48'1312.6 987.3 5.0 2.3
2014-Dec-11 06:00S 48°06' E 008°54'1312.7 320 / 35987.4 5.4 1.0 5.4 2.7 5.2
2014-Dec-11 05:00S 47°54' E 009°00'20 9.9 988.4 5.5 3.0
2014-Dec-11 03:00S 47°36' E 009°12'1010.1 310 / 30989.3 5.4 2.5 6.4 4.3 6.4
2014-Dec-11 02:00S 47°30' E 009°24'1312.7 990.5 6.5 3.4
2014-Dec-11 01:00S 47°18' E 009°30'7 7.3 991.2 6.2 3.4
2014-Dec-11 00:00S 47°12' E 009°36'1312.7 992.0 6.7 3.9
2014-Dec-10 23:00S 47°00' E 009°42'20 9.9 992.1 6.9 4.1
2014-Dec-10 21:00S 46°42' E 009°54'7 7.3 992.1 7.7 4.5
2014-Dec-10 20:00S 46°36' E 010°00'20 9.9 991.8 8.4 6.1
2014-Dec-10 18:00S 46°18' E 010°12'   992.2 9.1 7.6
Track history (hours):
 
Tides and Currents Weather Stations Pressure Air Temp Water Temp Dewpoint Dewpoint Depression Visibility Wind Speed Wind Dir Waves Ship Positions

Oceanographic research ship Ernest Shackleton (UK/Norway)

Detailed information on ship capabilities available from University of Delaware's Ocean Information Center and ARCUS's ALIAS (Arctic Logistics Information and Support) project.

Last reported at 2014-Dec-20 18:00 UTC. Time now 2014-Dec-20 20:10 UTC.
Position S 72°30' W 018°12'.

Length 80 m; beam 17 m; draft 7.4 m.

Type: Other ship. MMSI: 740357000.

AWS

Barometer 985.7 mb
Air temperature -0.7 ° C
Dewpoint -1.7 ° C

Date/timePositionNaut miles runAvg speedWind from/ knotsBaromVisibWave heightAir tempDewpointWater temp
2014-Dec-20 18:00S 72°30' W 018°12'0 0.0 985.7 -0.7-1.7
2014-Dec-20 17:00S 72°30' W 018°12'0 0.0 985.6 0.1-2.2
2014-Dec-20 16:00S 72°30' W 018°12'0 0.0 985.9 0.2-2.5
2014-Dec-20 14:00S 72°30' W 018°12'0 0.0 986.3 -0.4-2.1
2014-Dec-20 13:00S 72°30' W 018°12'2 1.8 986.4 -0.7-1.5
2014-Dec-20 12:00S 72°30' W 018°06'0 0.0 986.5 -1.1-1.1
2014-Dec-20 10:00S 72°30' W 018°06'6 2.0 986.6 -2.2 0.2
2014-Dec-20 07:00S 72°24' W 018°06'0 0.0 987.1 -2.9 1.0
2014-Dec-20 06:00S 72°24' W 018°06'0 0.0 987.4 -2.7 1.3
2014-Dec-20 05:00S 72°24' W 018°06'2 1.8 987.6 -2.9 1.7
2014-Dec-20 04:00S 72°24' W 018°00'0 0.0 987.8 -3.3 2.2
2014-Dec-20 02:00S 72°24' W 018°00'0 0.0 988.2 -3.2 2.0
2014-Dec-20 01:00S 72°24' W 018°00'0 0.0 988.3 -2.8 1.3
2014-Dec-20 00:00S 72°24' W 018°00'0 0.0 988.3 -2.8 1.0
2014-Dec-19 23:00S 72°24' W 018°00'0 0.0 988.2 -2.7 0.3
2014-Dec-19 20:00S 72°24' W 018°00'0 0.0 988.3 -1.9-1.0
2014-Dec-19 19:00S 72°24' W 018°00'0 0.0 988.4 -2.2-0.0
2014-Dec-19 18:00S 72°24' W 018°00'0 0.0 988.4 -2.7 0.8
2014-Dec-19 16:00S 72°24' W 018°00'2 1.8 988.7 -2.5 0.2
2014-Dec-19 15:00S 72°24' W 017°54'2 1.8 988.8 -2.7 0.3
2014-Dec-19 14:00S 72°24' W 017°48'4 3.6 989.0 -3.0 0.2
2014-Dec-19 13:00S 72°24' W 017°36'11 3.6 989.1 -2.8 0.1
2014-Dec-19 10:00S 72°30' W 018°06'0 0.0 989.2 -3.6 1.4
2014-Dec-19 09:00S 72°30' W 018°06'0 0.0 989.1 -4.1 2.3
2014-Dec-19 08:00S 72°30' W 018°06'4 3.6 989.1 -3.9 2.2
2014-Dec-19 07:00S 72°30' W 017°54'1212.4 989.2 -3.7 1.5
2014-Dec-19 06:00S 72°24' W 017°18'2311.6 989.6 -3.3 1.8
2014-Dec-19 04:00S 72°06' W 016°30'1111.1 990.0 -3.4 1.8
2014-Dec-19 03:00S 72°06' W 015°54'7 7.4 990.2 -3.4 2.0
2014-Dec-19 02:00S 72°06' W 015°30'1312.6 990.3 -3.0 1.3
2014-Dec-19 01:00S 71°54' W 015°18'1312.6 990.3 -3.3 1.2
2014-Dec-19 00:00S 71°42' W 015°06'19 9.7 990.4 -3.0 0.1
2014-Dec-18 22:00S 71°30' W 014°18'2813.9 990.5 -2.6-0.4
2014-Dec-18 20:00S 71°12' W 013°12'17 8.3 990.2 -2.3-1.1
2014-Dec-18 18:00S 71°06' W 012°24'1313.1 200 / 18988.810.8 -1.2-1.4-0.9
2014-Dec-18 17:00S 71°00' W 011°48'1111.5 989.2 -3.2-0.1
2014-Dec-18 16:00S 70°54' W 011°18'3210.6 988.7 -2.7-1.7
2014-Dec-18 13:00S 70°42' W 009°48'8 8.5 988.4 -3.4-1.0
2014-Dec-18 12:00S 70°36' W 009°30'1211.7 987.9 -2.4-3.1
2014-Dec-18 11:00S 70°30' W 009°00'1211.7 987.4 -1.5-3.8
2014-Dec-18 10:00S 70°24' W 008°30'1212.1 988.0 -2.0-2.3
2014-Dec-18 09:00S 70°24' W 007°54'1212.1 987.8 -3.6-1.0
2014-Dec-18 08:00S 70°24' W 007°18'1212.1 987.6 -3.8-0.1
2014-Dec-18 07:00S 70°24' W 006°42'1414.5 987.4 -3.8 2.1
2014-Dec-18 06:00S 70°12' W 006°18'6 6.1 987.9 -2.4-0.6
2014-Dec-18 05:00S 70°12' W 006°00'2 2.0 988.1 -2.7-1.7
2014-Dec-18 04:00S 70°12' W 005°54'6 6.3 988.4 -2.6-3.9
2014-Dec-18 03:00S 70°06' W 005°48'2 2.0 988.7 -3.6-0.0
2014-Dec-18 02:00S 70°06' W 005°42'2 2.0 989.0 -4.5 1.2
2014-Dec-18 01:00S 70°06' W 005°36'6 6.0 989.0 -5.0 2.2
2014-Dec-18 00:00S 70°00' W 005°36'6 3.2 989.0 -3.8 1.1
2014-Dec-17 22:00S 69°54' W 005°30'10 5.1 988.5 -1.6-2.9
2014-Dec-17 20:00S 70°00' W 005°06'8 8.2 988.6 -0.2-4.7
2014-Dec-17 19:00S 70°00' W 004°42'6 6.2 988.4 -0.9-3.6
2014-Dec-17 18:00S 70°00' W 004°24'1010.2 987.7 -0.8-3.5
2014-Dec-17 17:00S 69°54' W 004°00'8 8.2 987.1 -0.4-4.1
2014-Dec-17 16:00S 69°54' W 003°36'1212.2 986.5 -1.6-2.3
2014-Dec-17 15:00S 70°06' W 003°30'6 6.0 986.9 -1.4-3.2
2014-Dec-17 14:00S 70°12' W 003°30'6 6.3 987.0 0.1-5.2
2014-Dec-17 13:00S 70°06' W 003°36'17 8.6 986.9 -0.5-5.0
2014-Dec-17 11:00S 69°54' W 003°00'1413.8 984.7 -1.4-2.8
2014-Dec-17 10:00S 69°48' W 002°24'6 6.3 984.3 -1.6-2.0
2014-Dec-17 09:00S 69°42' W 002°18'1212.0 981.7 -1.9-1.2
2014-Dec-17 08:00S 69°30' W 002°18'1212.2 981.3 -2.1-0.7
2014-Dec-17 07:00S 69°18' W 002°24'7 3.7 979.8 -2.2-0.5
2014-Dec-17 05:00S 69°12' W 002°36'6 6.0 979.5 -2.7 0.4
2014-Dec-17 04:00S 69°06' W 002°36'6 6.4 977.9 -2.5 0.6
2014-Dec-17 03:00S 69°00' W 002°42'6 6.0 977.6 -2.6 1.1
2014-Dec-17 02:00S 68°54' W 002°42'7 7.4 976.7 -2.3 0.9
2014-Dec-17 01:00S 68°48' W 002°30'18 9.1 976.3 -2.3 0.8
2014-Dec-16 23:00S 68°30' W 002°24'6 6.0 974.7 -2.4 1.2
2014-Dec-16 22:00S 68°24' W 002°24'6 6.0 974.5 -2.4 1.1
2014-Dec-16 21:00S 68°18' W 002°24'12 6.1 974.3 -2.1 0.7
2014-Dec-16 19:00S 68°06' W 002°18'19 9.3 974.2 -1.7-0.0
2014-Dec-16 17:00S 67°48' W 002°06'145 7.3 973.9 -1.2-1.3
2014-Dec-15 21:00S 65°24' W 001°18'3110.3 120 / 14972.2 5.4 -1.6 -0.7
2014-Dec-15 18:00S 64°54' W 001°36'6310.4 130 / 7973.1 2.2 -0.6-1.0-0.7
2014-Dec-15 12:00S 63°54' W 002°18'25 8.2 040 / 3974.3 5.4 1.2 0.1-0.9
2014-Dec-15 09:00S 63°30' W 002°30'44 8.8 050 / 2975.5 2.2 -0.0-0.3-1.0
2014-Dec-15 04:00S 62°48' W 003°00'9812.3 030 / 7978.4 2.2 -1.6-2.4-1.0
2014-Dec-14 20:00S 61°12' W 002°18'30 9.9 340 / 9982.4 5.4 -1.1-1.8-0.8
2014-Dec-14 17:00S 60°48' W 001°42'2512.6 340 / 8984.6 5.4 -0.9 -0.9
2014-Dec-14 15:00S 60°30' W 001°06'2512.7 290 / 11987.2 5.4 -0.3 -0.9
2014-Dec-14 13:00S 60°12' W 000°30'37 9.2 250 / 13988.0 5.4 -0.4-1.9-0.8
2014-Dec-14 09:00S 59°42' E 000°12'5711.4 340 / 17989.0 2.2 -0.8 -0.9
2014-Dec-14 04:00S 58°48' E 000°48'3913.1 330 / 18994.9 5.4 -1.7-2.5-0.5
2014-Dec-14 01:00S 58°12' E 001°18'7 6.8 997.8 -2.4-0.6
2014-Dec-14 00:00S 58°06' E 001°24'28411.4 998.4 -2.9-0.2
2014-Dec-12 23:00S 53°42' E 004°30'1414.0 977.9 -0.6
2014-Dec-12 22:00S 53°30' E 004°42'1312.5 978.6 0.2-0.4
2014-Dec-12 21:00S 53°18' E 004°48'1414.0 979.3 0.2-0.5
2014-Dec-12 20:00S 53°06' E 005°00'1312.5 980.7 0.2-0.5
2014-Dec-12 19:00S 52°54' E 005°06'9 9.4 040 / 15982.0 5.4 0.5 0.5-0.3 1.5
2014-Dec-12 18:00S 52°48' E 005°18'2512.5 984.2 1.0 0.2
2014-Dec-12 16:00S 52°24' E 005°30'2110.6 989.2 0.9 0.1
2014-Dec-12 14:00S 52°06' E 005°48'2110.6 994.2 0.9-0.1
2014-Dec-12 12:00S 51°48' E 006°06'3411.2 997.9 1.5 0.4
2014-Dec-12 09:00S 51°18' E 006°30'39 9.8 1001.8 1.0-1.1
2014-Dec-12 05:00S 50°42' E 006°54'7 7.1 1003.1 1.4-3.0
2014-Dec-12 04:00S 50°36' E 007°00'6 6.0 1003.0 1.5-2.2
2014-Dec-12 03:00S 50°30' E 007°00'10 9.7 250 / 181002.4 2.2 1.0 2.2 1.1 3.4
2014-Dec-12 02:00S 50°24' E 007°12'1312.6 1003.0 1.9-2.6
2014-Dec-12 01:00S 50°12' E 007°18'7 7.1 1003.0 1.8-2.0
2014-Dec-12 00:00S 50°06' E 007°24'7 7.1 1003.3 0.9-1.0
2014-Dec-11 23:00S 50°00' E 007°30'13 6.3 1003.0 2.2-2.6
2014-Dec-11 21:00S 49°48' E 007°36'14 7.1 1003.0 2.1-3.6
2014-Dec-11 19:00S 49°36' E 007°48'7 7.2 1001.2 1.8-3.8
2014-Dec-11 18:00S 49°30' E 007°54'6 6.0 999.8 1.8-4.1
2014-Dec-11 17:00S 49°24' E 007°54'7 7.2 998.0 2.0-3.3
2014-Dec-11 16:00S 49°18' E 008°00'7 7.2 996.3 0.1-1.0
2014-Dec-11 15:00S 49°12' E 008°06'0 0.0 994.6 1.8-2.9
2014-Dec-11 14:00S 49°12' E 008°06'7 7.2 992.9 1.8-2.3
2014-Dec-11 13:00S 49°06' E 008°12'7 7.2 991.4 2.3-1.2
2014-Dec-11 12:00S 49°00' E 008°18'6 6.0 989.4 2.2 0.2
2014-Dec-11 11:00S 48°54' E 008°18'4110.3 988.3 3.2 0.3
2014-Dec-11 07:00S 48°18' E 008°48'1312.6 987.3 5.0 2.3
2014-Dec-11 06:00S 48°06' E 008°54'1312.7 320 / 35987.4 5.4 1.0 5.4 2.7 5.2
2014-Dec-11 05:00S 47°54' E 009°00'20 9.9 988.4 5.5 3.0
2014-Dec-11 03:00S 47°36' E 009°12'1010.1 310 / 30989.3 5.4 2.5 6.4 4.3 6.4
2014-Dec-11 02:00S 47°30' E 009°24'1312.7 990.5 6.5 3.4
2014-Dec-11 01:00S 47°18' E 009°30'7 7.3 991.2 6.2 3.4
2014-Dec-11 00:00S 47°12' E 009°36'1312.7 992.0 6.7 3.9
2014-Dec-10 23:00S 47°00' E 009°42'20 9.9 992.1 6.9 4.1
2014-Dec-10 21:00S 46°42' E 009°54'7 7.3 992.1 7.7 4.5
2014-Dec-10 20:00S 46°36' E 010°00'20 9.9 991.8 8.4 6.1
2014-Dec-10 18:00S 46°18' E 010°12'   992.2 9.1 7.6

Dump ship's entire track history